sensor_id;sensor_type;location;lat;lon;timestamp;P1;durP1;ratioP1;P2;durP2;ratioP2
22786;SDS011;63134;52.020;4.714;2023-05-16T00:02:24;29.35;;;4.72;;
22786;SDS011;63134;52.020;4.714;2023-05-16T00:05:09;20.88;;;4.05;;
22786;SDS011;63134;52.020;4.714;2023-05-16T00:07:58;24.25;;;3.50;;
22786;SDS011;63134;52.020;4.714;2023-05-16T00:10:43;26.33;;;4.07;;
22786;SDS011;63134;52.020;4.714;2023-05-16T00:13:29;28.15;;;4.55;;
22786;SDS011;63134;52.020;4.714;2023-05-16T00:16:14;17.17;;;3.38;;
22786;SDS011;63134;52.020;4.714;2023-05-16T00:19:00;32.28;;;3.80;;
22786;SDS011;63134;52.020;4.714;2023-05-16T00:21:46;22.52;;;4.47;;
22786;SDS011;63134;52.020;4.714;2023-05-16T00:24:32;23.00;;;3.80;;
22786;SDS011;63134;52.020;4.714;2023-05-16T00:27:18;31.75;;;5.00;;
22786;SDS011;63134;52.020;4.714;2023-05-16T00:30:04;37.03;;;4.90;;
22786;SDS011;63134;52.020;4.714;2023-05-16T00:32:50;29.58;;;4.82;;
22786;SDS011;63134;52.020;4.714;2023-05-16T00:35:35;26.20;;;4.30;;
22786;SDS011;63134;52.020;4.714;2023-05-16T00:38:21;22.17;;;3.80;;
22786;SDS011;63134;52.020;4.714;2023-05-16T00:41:08;27.60;;;4.70;;
22786;SDS011;63134;52.020;4.714;2023-05-16T00:43:54;25.15;;;4.43;;
22786;SDS011;63134;52.020;4.714;2023-05-16T00:46:40;23.63;;;4.47;;
22786;SDS011;63134;52.020;4.714;2023-05-16T00:49:25;27.02;;;3.92;;
22786;SDS011;63134;52.020;4.714;2023-05-16T00:52:11;23.17;;;3.80;;
22786;SDS011;63134;52.020;4.714;2023-05-16T00:54:57;26.63;;;4.18;;
22786;SDS011;63134;52.020;4.714;2023-05-16T00:57:42;22.77;;;3.90;;
22786;SDS011;63134;52.020;4.714;2023-05-16T01:00:28;17.73;;;3.20;;
22786;SDS011;63134;52.020;4.714;2023-05-16T01:03:14;25.45;;;3.92;;
22786;SDS011;63134;52.020;4.714;2023-05-16T01:06:02;24.17;;;4.88;;
22786;SDS011;63134;52.020;4.714;2023-05-16T01:08:48;23.17;;;3.13;;
22786;SDS011;63134;52.020;4.714;2023-05-16T01:11:37;12.90;;;3.10;;
22786;SDS011;63134;52.020;4.714;2023-05-16T01:17:46;20.35;;;3.45;;
22786;SDS011;63134;52.020;4.714;2023-05-16T01:20:55;27.08;;;3.75;;
22786;SDS011;63134;52.020;4.714;2023-05-16T01:23:52;25.75;;;4.05;;
22786;SDS011;63134;52.020;4.714;2023-05-16T01:26:47;25.98;;;4.28;;
22786;SDS011;63134;52.020;4.714;2023-05-16T01:29:36;21.90;;;3.92;;
22786;SDS011;63134;52.020;4.714;2023-05-16T01:32:21;29.60;;;3.67;;
22786;SDS011;63134;52.020;4.714;2023-05-16T01:35:07;22.60;;;3.40;;
22786;SDS011;63134;52.020;4.714;2023-05-16T01:38:09;30.60;;;4.88;;
22786;SDS011;63134;52.020;4.714;2023-05-16T01:45:13;25.58;;;3.97;;
22786;SDS011;63134;52.020;4.714;2023-05-16T01:47:31;22.48;;;4.30;;
22786;SDS011;63134;52.020;4.714;2023-05-16T01:50:20;24.63;;;4.90;;
22786;SDS011;63134;52.020;4.714;2023-05-16T01:53:13;17.67;;;3.25;;
22786;SDS011;63134;52.020;4.714;2023-05-16T01:56:09;23.05;;;4.10;;
22786;SDS011;63134;52.020;4.714;2023-05-16T01:58:59;28.67;;;4.40;;
22786;SDS011;63134;52.020;4.714;2023-05-16T02:01:51;19.95;;;4.03;;
22786;SDS011;63134;52.020;4.714;2023-05-16T02:04:38;22.40;;;3.33;;
22786;SDS011;63134;52.020;4.714;2023-05-16T02:07:26;28.23;;;4.35;;
22786;SDS011;63134;52.020;4.714;2023-05-16T02:10:12;23.90;;;4.43;;
22786;SDS011;63134;52.020;4.714;2023-05-16T02:12:57;22.45;;;3.70;;
22786;SDS011;63134;52.020;4.714;2023-05-16T02:15:43;23.95;;;3.65;;
22786;SDS011;63134;52.020;4.714;2023-05-16T02:18:28;27.58;;;4.00;;
22786;SDS011;63134;52.020;4.714;2023-05-16T02:21:14;17.60;;;3.75;;
22786;SDS011;63134;52.020;4.714;2023-05-16T02:23:59;20.95;;;4.05;;
22786;SDS011;63134;52.020;4.714;2023-05-16T02:26:45;18.50;;;3.25;;
22786;SDS011;63134;52.020;4.714;2023-05-16T02:29:31;22.52;;;4.05;;
22786;SDS011;63134;52.020;4.714;2023-05-16T02:32:20;18.02;;;3.03;;
22786;SDS011;63134;52.020;4.714;2023-05-16T02:35:06;19.73;;;3.88;;
22786;SDS011;63134;52.020;4.714;2023-05-16T02:37:52;20.77;;;3.55;;
22786;SDS011;63134;52.020;4.714;2023-05-16T02:40:37;23.63;;;3.78;;
22786;SDS011;63134;52.020;4.714;2023-05-16T02:43:22;11.63;;;2.88;;
22786;SDS011;63134;52.020;4.714;2023-05-16T02:46:42;25.55;;;3.95;;
22786;SDS011;63134;52.020;4.714;2023-05-16T02:49:21;19.90;;;3.30;;
22786;SDS011;63134;52.020;4.714;2023-05-16T02:52:06;21.67;;;3.30;;
22786;SDS011;63134;52.020;4.714;2023-05-16T02:54:51;15.93;;;3.45;;
22786;SDS011;63134;52.020;4.714;2023-05-16T02:57:43;23.95;;;3.20;;
22786;SDS011;63134;52.020;4.714;2023-05-16T03:00:29;16.65;;;3.33;;
22786;SDS011;63134;52.020;4.714;2023-05-16T03:03:14;18.42;;;3.35;;
22786;SDS011;63134;52.020;4.714;2023-05-16T03:06:00;17.83;;;3.20;;
22786;SDS011;63134;52.020;4.714;2023-05-16T03:08:46;17.08;;;3.30;;
22786;SDS011;63134;52.020;4.714;2023-05-16T03:11:34;16.50;;;3.22;;
22786;SDS011;63134;52.020;4.714;2023-05-16T03:14:21;21.00;;;3.78;;
22786;SDS011;63134;52.020;4.714;2023-05-16T03:17:06;16.92;;;3.00;;
22786;SDS011;63134;52.020;4.714;2023-05-16T03:19:52;15.82;;;2.75;;
22786;SDS011;63134;52.020;4.714;2023-05-16T03:22:38;16.63;;;3.15;;
22786;SDS011;63134;52.020;4.714;2023-05-16T03:25:24;13.55;;;3.13;;
22786;SDS011;63134;52.020;4.714;2023-05-16T03:28:10;13.73;;;3.40;;
22786;SDS011;63134;52.020;4.714;2023-05-16T03:30:59;20.17;;;3.20;;
22786;SDS011;63134;52.020;4.714;2023-05-16T03:33:45;17.65;;;3.10;;
22786;SDS011;63134;52.020;4.714;2023-05-16T03:36:34;16.65;;;2.75;;
22786;SDS011;63134;52.020;4.714;2023-05-16T03:39:19;24.67;;;3.33;;
22786;SDS011;63134;52.020;4.714;2023-05-16T03:42:05;17.38;;;3.13;;
22786;SDS011;63134;52.020;4.714;2023-05-16T03:44:51;18.38;;;3.55;;
22786;SDS011;63134;52.020;4.714;2023-05-16T03:47:37;27.35;;;3.95;;
22786;SDS011;63134;52.020;4.714;2023-05-16T03:50:23;14.10;;;3.72;;
22786;SDS011;63134;52.020;4.714;2023-05-16T03:53:08;15.18;;;3.53;;
22786;SDS011;63134;52.020;4.714;2023-05-16T03:55:55;25.60;;;3.85;;
22786;SDS011;63134;52.020;4.714;2023-05-16T03:58:41;14.60;;;2.85;;
22786;SDS011;63134;52.020;4.714;2023-05-16T04:01:26;16.42;;;3.33;;
22786;SDS011;63134;52.020;4.714;2023-05-16T04:04:12;23.42;;;3.88;;
22786;SDS011;63134;52.020;4.714;2023-05-16T04:06:58;22.20;;;3.55;;
22786;SDS011;63134;52.020;4.714;2023-05-16T04:09:43;18.85;;;3.40;;
22786;SDS011;63134;52.020;4.714;2023-05-16T04:12:29;17.50;;;4.07;;
22786;SDS011;63134;52.020;4.714;2023-05-16T04:15:18;14.98;;;3.45;;
22786;SDS011;63134;52.020;4.714;2023-05-16T04:18:03;18.35;;;3.53;;
22786;SDS011;63134;52.020;4.714;2023-05-16T04:20:49;19.10;;;4.00;;
22786;SDS011;63134;52.020;4.714;2023-05-16T04:23:34;13.98;;;2.88;;
22786;SDS011;63134;52.020;4.714;2023-05-16T04:26:20;14.30;;;3.42;;
22786;SDS011;63134;52.020;4.714;2023-05-16T04:29:07;16.27;;;3.03;;
22786;SDS011;63134;52.020;4.714;2023-05-16T04:31:53;17.40;;;4.03;;
22786;SDS011;63134;52.020;4.714;2023-05-16T04:34:39;20.88;;;3.40;;
22786;SDS011;63134;52.020;4.714;2023-05-16T04:37:24;18.85;;;3.70;;
22786;SDS011;63134;52.020;4.714;2023-05-16T04:40:15;21.13;;;3.65;;
22786;SDS011;63134;52.020;4.714;2023-05-16T04:43:01;19.88;;;3.33;;
22786;SDS011;63134;52.020;4.714;2023-05-16T04:45:47;19.33;;;3.08;;
22786;SDS011;63134;52.020;4.714;2023-05-16T04:48:32;17.67;;;3.95;;
22786;SDS011;63134;52.020;4.714;2023-05-16T04:51:18;17.73;;;3.63;;
22786;SDS011;63134;52.020;4.714;2023-05-16T04:54:09;15.23;;;3.15;;
22786;SDS011;63134;52.020;4.714;2023-05-16T04:56:54;11.68;;;3.05;;
22786;SDS011;63134;52.020;4.714;2023-05-16T04:59:41;17.38;;;3.45;;
22786;SDS011;63134;52.020;4.714;2023-05-16T05:02:26;19.08;;;3.00;;
22786;SDS011;63134;52.020;4.714;2023-05-16T05:05:12;23.08;;;4.03;;
22786;SDS011;63134;52.020;4.714;2023-05-16T05:07:57;16.85;;;2.78;;
22786;SDS011;63134;52.020;4.714;2023-05-16T05:10:44;15.82;;;2.80;;
22786;SDS011;63134;52.020;4.714;2023-05-16T05:13:29;19.38;;;2.90;;
22786;SDS011;63134;52.020;4.714;2023-05-16T05:16:15;21.15;;;2.90;;
22786;SDS011;63134;52.020;4.714;2023-05-16T05:19:00;16.55;;;3.00;;
22786;SDS011;63134;52.020;4.714;2023-05-16T05:21:46;9.10;;;2.40;;
22786;SDS011;63134;52.020;4.714;2023-05-16T05:24:37;14.55;;;2.97;;
22786;SDS011;63134;52.020;4.714;2023-05-16T05:27:23;15.73;;;3.13;;
22786;SDS011;63134;52.020;4.714;2023-05-16T05:30:09;16.92;;;2.63;;
22786;SDS011;63134;52.020;4.714;2023-05-16T05:32:55;16.83;;;3.03;;
22786;SDS011;63134;52.020;4.714;2023-05-16T05:35:40;12.85;;;2.75;;
22786;SDS011;63134;52.020;4.714;2023-05-16T05:38:25;14.70;;;3.55;;
22786;SDS011;63134;52.020;4.714;2023-05-16T05:41:11;11.40;;;2.45;;
22786;SDS011;63134;52.020;4.714;2023-05-16T05:43:57;18.05;;;3.47;;
22786;SDS011;63134;52.020;4.714;2023-05-16T05:46:42;17.92;;;3.00;;
22786;SDS011;63134;52.020;4.714;2023-05-16T05:49:27;14.57;;;2.95;;
22786;SDS011;63134;52.020;4.714;2023-05-16T05:52:17;14.80;;;2.88;;
22786;SDS011;63134;52.020;4.714;2023-05-16T05:55:02;13.07;;;2.67;;
22786;SDS011;63134;52.020;4.714;2023-05-16T05:57:48;9.40;;;2.40;;
22786;SDS011;63134;52.020;4.714;2023-05-16T06:00:34;13.20;;;3.08;;
22786;SDS011;63134;52.020;4.714;2023-05-16T06:03:20;13.52;;;2.95;;
22786;SDS011;63134;52.020;4.714;2023-05-16T06:06:05;11.07;;;2.45;;
22786;SDS011;63134;52.020;4.714;2023-05-16T06:08:55;16.08;;;3.55;;
22786;SDS011;63134;52.020;4.714;2023-05-16T06:11:41;12.10;;;2.80;;
22786;SDS011;63134;52.020;4.714;2023-05-16T06:14:29;6.72;;;2.55;;
22786;SDS011;63134;52.020;4.714;2023-05-16T06:17:14;11.90;;;2.80;;
22786;SDS011;63134;52.020;4.714;2023-05-16T06:20:03;9.18;;;2.35;;
22786;SDS011;63134;52.020;4.714;2023-05-16T06:22:48;11.13;;;2.50;;
22786;SDS011;63134;52.020;4.714;2023-05-16T06:25:35;11.15;;;2.78;;
22786;SDS011;63134;52.020;4.714;2023-05-16T06:28:20;12.88;;;3.58;;
22786;SDS011;63134;52.020;4.714;2023-05-16T06:31:08;13.30;;;2.95;;
22786;SDS011;63134;52.020;4.714;2023-05-16T06:33:54;12.10;;;2.00;;
22786;SDS011;63134;52.020;4.714;2023-05-16T06:36:40;16.48;;;2.85;;
22786;SDS011;63134;52.020;4.714;2023-05-16T06:39:25;9.25;;;1.90;;
22786;SDS011;63134;52.020;4.714;2023-05-16T06:42:11;18.88;;;3.28;;
22786;SDS011;63134;52.020;4.714;2023-05-16T06:44:57;9.80;;;2.58;;
22786;SDS011;63134;52.020;4.714;2023-05-16T06:47:42;9.10;;;1.88;;
22786;SDS011;63134;52.020;4.714;2023-05-16T06:50:30;9.32;;;2.03;;
22786;SDS011;63134;52.020;4.714;2023-05-16T06:53:17;11.63;;;1.70;;
22786;SDS011;63134;52.020;4.714;2023-05-16T06:56:03;6.65;;;1.90;;
22786;SDS011;63134;52.020;4.714;2023-05-16T06:58:49;9.52;;;2.30;;
22786;SDS011;63134;52.020;4.714;2023-05-16T07:01:34;7.38;;;2.05;;
22786;SDS011;63134;52.020;4.714;2023-05-16T07:04:20;8.35;;;1.90;;
22786;SDS011;63134;52.020;4.714;2023-05-16T07:07:09;11.40;;;1.83;;
22786;SDS011;63134;52.020;4.714;2023-05-16T07:09:55;10.50;;;2.25;;
22786;SDS011;63134;52.020;4.714;2023-05-16T07:12:41;8.85;;;2.08;;
22786;SDS011;63134;52.020;4.714;2023-05-16T07:15:27;9.85;;;2.00;;
22786;SDS011;63134;52.020;4.714;2023-05-16T07:18:13;11.18;;;2.22;;
22786;SDS011;63134;52.020;4.714;2023-05-16T07:20:59;13.85;;;2.60;;
22786;SDS011;63134;52.020;4.714;2023-05-16T07:23:44;11.20;;;2.35;;
22786;SDS011;63134;52.020;4.714;2023-05-16T07:26:30;9.90;;;1.95;;
22786;SDS011;63134;52.020;4.714;2023-05-16T07:29:16;8.90;;;2.15;;
22786;SDS011;63134;52.020;4.714;2023-05-16T07:32:05;8.27;;;2.05;;
22786;SDS011;63134;52.020;4.714;2023-05-16T07:34:52;14.48;;;2.55;;
22786;SDS011;63134;52.020;4.714;2023-05-16T07:37:38;12.82;;;2.45;;
22786;SDS011;63134;52.020;4.714;2023-05-16T07:40:26;10.45;;;2.40;;
22786;SDS011;63134;52.020;4.714;2023-05-16T07:43:13;7.38;;;1.88;;
22786;SDS011;63134;52.020;4.714;2023-05-16T07:45:59;8.77;;;2.03;;
22786;SDS011;63134;52.020;4.714;2023-05-16T07:48:45;9.77;;;2.30;;
22786;SDS011;63134;52.020;4.714;2023-05-16T07:51:31;8.15;;;2.38;;
22786;SDS011;63134;52.020;4.714;2023-05-16T07:54:16;10.52;;;1.92;;
22786;SDS011;63134;52.020;4.714;2023-05-16T07:57:02;5.38;;;2.25;;
22786;SDS011;63134;52.020;4.714;2023-05-16T07:59:55;12.75;;;2.20;;
22786;SDS011;63134;52.020;4.714;2023-05-16T08:02:43;13.77;;;2.90;;
22786;SDS011;63134;52.020;4.714;2023-05-16T08:05:29;9.25;;;2.40;;
22786;SDS011;63134;52.020;4.714;2023-05-16T08:08:15;12.13;;;2.00;;
22786;SDS011;63134;52.020;4.714;2023-05-16T08:11:00;11.95;;;2.20;;
22786;SDS011;63134;52.020;4.714;2023-05-16T08:13:47;7.72;;;1.95;;
22786;SDS011;63134;52.020;4.714;2023-05-16T08:16:33;8.18;;;2.20;;
22786;SDS011;63134;52.020;4.714;2023-05-16T08:19:18;7.35;;;2.20;;
22786;SDS011;63134;52.020;4.714;2023-05-16T08:22:05;10.95;;;2.05;;
22786;SDS011;63134;52.020;4.714;2023-05-16T08:24:53;6.28;;;1.83;;
22786;SDS011;63134;52.020;4.714;2023-05-16T08:27:41;11.55;;;2.65;;
22786;SDS011;63134;52.020;4.714;2023-05-16T08:30:27;10.70;;;1.92;;
22786;SDS011;63134;52.020;4.714;2023-05-16T08:33:14;10.55;;;1.63;;
22786;SDS011;63134;52.020;4.714;2023-05-16T08:36:02;9.63;;;2.30;;
22786;SDS011;63134;52.020;4.714;2023-05-16T08:38:51;11.93;;;2.38;;
22786;SDS011;63134;52.020;4.714;2023-05-16T08:41:39;8.82;;;2.00;;
22786;SDS011;63134;52.020;4.714;2023-05-16T08:44:26;6.13;;;1.45;;
22786;SDS011;63134;52.020;4.714;2023-05-16T08:47:13;8.77;;;1.67;;
22786;SDS011;63134;52.020;4.714;2023-05-16T08:50:05;6.60;;;1.83;;
22786;SDS011;63134;52.020;4.714;2023-05-16T08:52:55;7.80;;;2.00;;
22786;SDS011;63134;52.020;4.714;2023-05-16T08:55:46;10.65;;;2.40;;
22786;SDS011;63134;52.020;4.714;2023-05-16T08:58:33;8.25;;;1.70;;
22786;SDS011;63134;52.020;4.714;2023-05-16T09:01:22;5.88;;;1.83;;
22786;SDS011;63134;52.020;4.714;2023-05-16T09:04:10;4.95;;;1.75;;
22786;SDS011;63134;52.020;4.714;2023-05-16T09:06:56;12.18;;;2.67;;
22786;SDS011;63134;52.020;4.714;2023-05-16T09:09:42;8.70;;;2.55;;
22786;SDS011;63134;52.020;4.714;2023-05-16T09:12:27;10.77;;;2.20;;
22786;SDS011;63134;52.020;4.714;2023-05-16T09:15:17;10.48;;;1.63;;
22786;SDS011;63134;52.020;4.714;2023-05-16T09:18:05;12.32;;;1.73;;
22786;SDS011;63134;52.020;4.714;2023-05-16T09:20:59;9.37;;;2.27;;
22786;SDS011;63134;52.020;4.714;2023-05-16T09:23:48;9.80;;;1.70;;
22786;SDS011;63134;52.020;4.714;2023-05-16T09:26:35;9.98;;;2.15;;
22786;SDS011;63134;52.020;4.714;2023-05-16T09:29:22;13.18;;;1.73;;
22786;SDS011;63134;52.020;4.714;2023-05-16T09:32:16;10.93;;;2.13;;
22786;SDS011;63134;52.020;4.714;2023-05-16T09:35:02;7.50;;;1.85;;
22786;SDS011;63134;52.020;4.714;2023-05-16T09:37:48;6.07;;;1.70;;
22786;SDS011;63134;52.020;4.714;2023-05-16T09:40:41;5.63;;;1.50;;
22786;SDS011;63134;52.020;4.714;2023-05-16T09:43:27;10.95;;;1.70;;
22786;SDS011;63134;52.020;4.714;2023-05-16T09:46:12;4.60;;;1.38;;
22786;SDS011;63134;52.020;4.714;2023-05-16T09:49:05;7.82;;;2.00;;
22786;SDS011;63134;52.020;4.714;2023-05-16T09:51:50;9.70;;;1.80;;
22786;SDS011;63134;52.020;4.714;2023-05-16T09:54:36;10.48;;;1.70;;
22786;SDS011;63134;52.020;4.714;2023-05-16T09:57:21;6.32;;;1.75;;
22786;SDS011;63134;52.020;4.714;2023-05-16T10:00:09;7.90;;;1.50;;
22786;SDS011;63134;52.020;4.714;2023-05-16T10:02:56;6.35;;;2.22;;
22786;SDS011;63134;52.020;4.714;2023-05-16T10:05:45;6.45;;;1.48;;
22786;SDS011;63134;52.020;4.714;2023-05-16T10:08:32;8.40;;;1.50;;
22786;SDS011;63134;52.020;4.714;2023-05-16T10:11:21;5.13;;;1.60;;
22786;SDS011;63134;52.020;4.714;2023-05-16T10:14:07;6.65;;;1.75;;
22786;SDS011;63134;52.020;4.714;2023-05-16T10:16:54;8.80;;;1.85;;
22786;SDS011;63134;52.020;4.714;2023-05-16T10:19:45;6.05;;;1.50;;
22786;SDS011;63134;52.020;4.714;2023-05-16T10:22:34;7.22;;;1.73;;
22786;SDS011;63134;52.020;4.714;2023-05-16T10:25:25;6.55;;;1.90;;
22786;SDS011;63134;52.020;4.714;2023-05-16T10:28:22;7.05;;;1.65;;
22786;SDS011;63134;52.020;4.714;2023-05-16T10:31:10;5.18;;;1.40;;
22786;SDS011;63134;52.020;4.714;2023-05-16T10:33:56;7.82;;;1.70;;
22786;SDS011;63134;52.020;4.714;2023-05-16T10:36:42;4.40;;;1.80;;
22786;SDS011;63134;52.020;4.714;2023-05-16T10:39:28;9.00;;;2.00;;
22786;SDS011;63134;52.020;4.714;2023-05-16T10:42:14;5.63;;;1.83;;
22786;SDS011;63134;52.020;4.714;2023-05-16T10:45:14;3.72;;;1.42;;
22786;SDS011;63134;52.020;4.714;2023-05-16T10:48:01;5.45;;;1.52;;
22786;SDS011;63134;52.020;4.714;2023-05-16T10:50:48;6.82;;;1.98;;
22786;SDS011;63134;52.020;4.714;2023-05-16T10:53:35;4.65;;;1.75;;
22786;SDS011;63134;52.020;4.714;2023-05-16T10:56:21;6.55;;;1.60;;
22786;SDS011;63134;52.020;4.714;2023-05-16T10:59:23;4.75;;;1.60;;
22786;SDS011;63134;52.020;4.714;2023-05-16T11:05:17;7.18;;;1.58;;
22786;SDS011;63134;52.020;4.714;2023-05-16T11:08:06;6.82;;;1.63;;
22786;SDS011;63134;52.020;4.714;2023-05-16T11:11:35;9.23;;;2.35;;
22786;SDS011;63134;52.020;4.714;2023-05-16T11:14:20;8.38;;;1.88;;
22786;SDS011;63134;52.020;4.714;2023-05-16T11:17:21;8.63;;;1.92;;
22786;SDS011;63134;52.020;4.714;2023-05-16T11:20:23;6.55;;;1.73;;
22786;SDS011;63134;52.020;4.714;2023-05-16T11:26:03;7.50;;;1.40;;
22786;SDS011;63134;52.020;4.714;2023-05-16T11:28:48;6.03;;;1.40;;
22786;SDS011;63134;52.020;4.714;2023-05-16T11:31:35;4.75;;;1.63;;
22786;SDS011;63134;52.020;4.714;2023-05-16T11:34:20;5.35;;;1.08;;
22786;SDS011;63134;52.020;4.714;2023-05-16T11:37:06;6.07;;;2.05;;
22786;SDS011;63134;52.020;4.714;2023-05-16T11:39:59;5.53;;;1.30;;
22786;SDS011;63134;52.020;4.714;2023-05-16T11:42:46;8.82;;;1.33;;
22786;SDS011;63134;52.020;4.714;2023-05-16T11:45:32;8.90;;;1.65;;
22786;SDS011;63134;52.020;4.714;2023-05-16T11:48:18;7.80;;;1.80;;
22786;SDS011;63134;52.020;4.714;2023-05-16T11:51:20;9.88;;;1.60;;
22786;SDS011;63134;52.020;4.714;2023-05-16T11:54:06;6.15;;;1.60;;
22786;SDS011;63134;52.020;4.714;2023-05-16T11:56:53;5.10;;;1.33;;
22786;SDS011;63134;52.020;4.714;2023-05-16T11:59:39;9.77;;;1.95;;
22786;SDS011;63134;52.020;4.714;2023-05-16T12:02:27;6.25;;;1.55;;
22786;SDS011;63134;52.020;4.714;2023-05-16T12:05:14;4.95;;;1.20;;
22786;SDS011;63134;52.020;4.714;2023-05-16T12:08:01;2.90;;;1.13;;
22786;SDS011;63134;52.020;4.714;2023-05-16T12:10:50;3.45;;;1.30;;
22786;SDS011;63134;52.020;4.714;2023-05-16T12:13:37;6.65;;;1.70;;
22786;SDS011;63134;52.020;4.714;2023-05-16T12:16:22;8.27;;;1.30;;
22786;SDS011;63134;52.020;4.714;2023-05-16T12:19:10;5.68;;;1.17;;
22786;SDS011;63134;52.020;4.714;2023-05-16T12:22:00;4.45;;;1.50;;
22786;SDS011;63134;52.020;4.714;2023-05-16T12:24:45;6.50;;;1.70;;
22786;SDS011;63134;52.020;4.714;2023-05-16T12:27:31;5.78;;;1.83;;
22786;SDS011;63134;52.020;4.714;2023-05-16T12:30:16;9.43;;;1.83;;
22786;SDS011;63134;52.020;4.714;2023-05-16T12:33:12;9.20;;;2.05;;
22786;SDS011;63134;52.020;4.714;2023-05-16T12:36:00;6.25;;;1.52;;
22786;SDS011;63134;52.020;4.714;2023-05-16T12:38:46;6.50;;;1.35;;
22786;SDS011;63134;52.020;4.714;2023-05-16T12:41:32;8.45;;;1.92;;
22786;SDS011;63134;52.020;4.714;2023-05-16T12:44:28;7.78;;;1.50;;
22786;SDS011;63134;52.020;4.714;2023-05-16T12:47:14;8.23;;;1.70;;
22786;SDS011;63134;52.020;4.714;2023-05-16T12:50:00;8.88;;;2.05;;
22786;SDS011;63134;52.020;4.714;2023-05-16T12:52:50;5.32;;;1.65;;
22786;SDS011;63134;52.020;4.714;2023-05-16T12:55:45;7.82;;;1.52;;
22786;SDS011;63134;52.020;4.714;2023-05-16T12:58:30;8.55;;;1.70;;
22786;SDS011;63134;52.020;4.714;2023-05-16T13:01:16;8.50;;;1.95;;
22786;SDS011;63134;52.020;4.714;2023-05-16T13:04:01;6.63;;;1.60;;
22786;SDS011;63134;52.020;4.714;2023-05-16T13:06:49;4.63;;;1.70;;
22786;SDS011;63134;52.020;4.714;2023-05-16T13:09:39;11.40;;;1.38;;
22786;SDS011;63134;52.020;4.714;2023-05-16T13:12:28;7.18;;;1.70;;
22786;SDS011;63134;52.020;4.714;2023-05-16T13:15:14;6.15;;;1.38;;
22786;SDS011;63134;52.020;4.714;2023-05-16T13:17:59;5.65;;;1.52;;
22786;SDS011;63134;52.020;4.714;2023-05-16T13:20:46;6.82;;;1.90;;
22786;SDS011;63134;52.020;4.714;2023-05-16T13:23:31;5.07;;;1.52;;
22786;SDS011;63134;52.020;4.714;2023-05-16T13:26:18;8.70;;;1.75;;
22786;SDS011;63134;52.020;4.714;2023-05-16T13:29:05;6.88;;;1.48;;
22786;SDS011;63134;52.020;4.714;2023-05-16T13:31:53;7.97;;;1.88;;
22786;SDS011;63134;52.020;4.714;2023-05-16T13:34:39;7.70;;;1.67;;
22786;SDS011;63134;52.020;4.714;2023-05-16T13:37:27;6.03;;;1.52;;
22786;SDS011;63134;52.020;4.714;2023-05-16T13:40:13;5.85;;;1.60;;
22786;SDS011;63134;52.020;4.714;2023-05-16T13:42:59;7.15;;;1.50;;
22786;SDS011;63134;52.020;4.714;2023-05-16T13:45:45;4.72;;;1.35;;
22786;SDS011;63134;52.020;4.714;2023-05-16T13:48:31;5.15;;;1.67;;
22786;SDS011;63134;52.020;4.714;2023-05-16T13:51:24;5.85;;;1.40;;
22786;SDS011;63134;52.020;4.714;2023-05-16T13:54:09;6.15;;;1.45;;
22786;SDS011;63134;52.020;4.714;2023-05-16T13:56:55;4.18;;;1.40;;
22786;SDS011;63134;52.020;4.714;2023-05-16T13:59:41;5.45;;;1.15;;
22786;SDS011;63134;52.020;4.714;2023-05-16T14:02:55;5.85;;;1.48;;
22786;SDS011;63134;52.020;4.714;2023-05-16T14:05:41;6.38;;;1.48;;
22786;SDS011;63134;52.020;4.714;2023-05-16T14:08:26;5.43;;;1.27;;
22786;SDS011;63134;52.020;4.714;2023-05-16T14:11:13;5.68;;;1.60;;
22786;SDS011;63134;52.020;4.714;2023-05-16T14:13:58;8.18;;;1.60;;
22786;SDS011;63134;52.020;4.714;2023-05-16T14:16:48;5.43;;;1.20;;
22786;SDS011;63134;52.020;4.714;2023-05-16T14:19:33;3.03;;;0.90;;
22786;SDS011;63134;52.020;4.714;2023-05-16T14:22:20;4.13;;;1.15;;
22786;SDS011;63134;52.020;4.714;2023-05-16T14:25:06;4.60;;;1.15;;
22786;SDS011;63134;52.020;4.714;2023-05-16T14:27:52;4.15;;;1.08;;
22786;SDS011;63134;52.020;4.714;2023-05-16T14:30:37;3.80;;;1.10;;
22786;SDS011;63134;52.020;4.714;2023-05-16T14:33:22;6.28;;;1.10;;
22786;SDS011;63134;52.020;4.714;2023-05-16T14:36:10;3.47;;;1.30;;
22786;SDS011;63134;52.020;4.714;2023-05-16T14:38:57;4.93;;;1.08;;
22786;SDS011;63134;52.020;4.714;2023-05-16T14:41:42;5.47;;;1.35;;
22786;SDS011;63134;52.020;4.714;2023-05-16T14:44:28;7.25;;;1.30;;
22786;SDS011;63134;52.020;4.714;2023-05-16T14:47:14;5.00;;;1.27;;
22786;SDS011;63134;52.020;4.714;2023-05-16T14:49:59;6.18;;;1.42;;
22786;SDS011;63134;52.020;4.714;2023-05-16T14:52:45;5.70;;;1.23;;
22786;SDS011;63134;52.020;4.714;2023-05-16T14:55:32;3.75;;;0.85;;
22786;SDS011;63134;52.020;4.714;2023-05-16T14:58:18;5.35;;;1.10;;
22786;SDS011;63134;52.020;4.714;2023-05-16T15:01:03;5.13;;;1.52;;
22786;SDS011;63134;52.020;4.714;2023-05-16T15:03:52;5.25;;;1.55;;
22786;SDS011;63134;52.020;4.714;2023-05-16T15:06:40;13.77;;;0.82;;
22786;SDS011;63134;52.020;4.714;2023-05-16T15:09:25;4.72;;;1.30;;
22786;SDS011;63134;52.020;4.714;2023-05-16T15:12:11;6.38;;;1.10;;
22786;SDS011;63134;52.020;4.714;2023-05-16T15:14:56;7.68;;;0.90;;
22786;SDS011;63134;52.020;4.714;2023-05-16T15:17:46;5.80;;;1.40;;
22786;SDS011;63134;52.020;4.714;2023-05-16T15:20:33;5.30;;;1.35;;
22786;SDS011;63134;52.020;4.714;2023-05-16T15:23:22;5.70;;;1.40;;
22786;SDS011;63134;52.020;4.714;2023-05-16T15:26:11;3.63;;;1.10;;
22786;SDS011;63134;52.020;4.714;2023-05-16T15:28:59;3.55;;;1.02;;
22786;SDS011;63134;52.020;4.714;2023-05-16T15:31:44;3.55;;;1.10;;
22786;SDS011;63134;52.020;4.714;2023-05-16T15:34:33;4.18;;;1.10;;
22786;SDS011;63134;52.020;4.714;2023-05-16T15:37:20;5.07;;;1.27;;
22786;SDS011;63134;52.020;4.714;2023-05-16T15:40:06;6.47;;;1.42;;
22786;SDS011;63134;52.020;4.714;2023-05-16T15:42:53;6.78;;;1.30;;
22786;SDS011;63134;52.020;4.714;2023-05-16T15:45:42;5.70;;;1.40;;
22786;SDS011;63134;52.020;4.714;2023-05-16T15:48:29;5.47;;;1.42;;
22786;SDS011;63134;52.020;4.714;2023-05-16T15:51:14;7.82;;;2.28;;
22786;SDS011;63134;52.020;4.714;2023-05-16T15:54:00;6.97;;;2.20;;
22786;SDS011;63134;52.020;4.714;2023-05-16T15:56:46;7.25;;;1.58;;
22786;SDS011;63134;52.020;4.714;2023-05-16T15:59:32;6.85;;;2.20;;
22786;SDS011;63134;52.020;4.714;2023-05-16T16:02:18;11.60;;;2.85;;
22786;SDS011;63134;52.020;4.714;2023-05-16T16:05:03;11.95;;;2.72;;
22786;SDS011;63134;52.020;4.714;2023-05-16T16:07:49;6.50;;;1.98;;
22786;SDS011;63134;52.020;4.714;2023-05-16T16:10:36;12.73;;;3.20;;
22786;SDS011;63134;52.020;4.714;2023-05-16T16:13:21;12.75;;;2.85;;
22786;SDS011;63134;52.020;4.714;2023-05-16T16:16:10;9.07;;;2.60;;
22786;SDS011;63134;52.020;4.714;2023-05-16T16:18:55;10.25;;;2.42;;
22786;SDS011;63134;52.020;4.714;2023-05-16T16:21:41;6.85;;;2.80;;
22786;SDS011;63134;52.020;4.714;2023-05-16T16:24:26;8.70;;;2.28;;
22786;SDS011;63134;52.020;4.714;2023-05-16T16:27:12;8.57;;;2.40;;
22786;SDS011;63134;52.020;4.714;2023-05-16T16:29:57;7.70;;;1.90;;
22786;SDS011;63134;52.020;4.714;2023-05-16T16:32:42;8.98;;;2.22;;
22786;SDS011;63134;52.020;4.714;2023-05-16T16:35:32;8.07;;;2.10;;
22786;SDS011;63134;52.020;4.714;2023-05-16T16:38:18;9.88;;;2.33;;
22786;SDS011;63134;52.020;4.714;2023-05-16T16:41:03;12.68;;;2.47;;
22786;SDS011;63134;52.020;4.714;2023-05-16T16:43:49;13.20;;;2.95;;
22786;SDS011;63134;52.020;4.714;2023-05-16T16:46:34;12.70;;;2.90;;
22786;SDS011;63134;52.020;4.714;2023-05-16T16:49:20;11.98;;;2.47;;
22786;SDS011;63134;52.020;4.714;2023-05-16T16:52:05;10.43;;;2.70;;
22786;SDS011;63134;52.020;4.714;2023-05-16T16:54:51;10.57;;;2.35;;